createdAt,value
2023-01-13T00:00:06.084Z,9.39
2023-01-13T00:00:16.268Z,9.39
2023-01-13T00:00:26.757Z,9.39
2023-01-13T00:00:36.950Z,9.37
2023-01-13T00:00:47.351Z,9.39
2023-01-13T00:00:57.673Z,9.40
2023-01-13T00:01:08.028Z,9.40
2023-01-13T00:01:18.361Z,9.39
2023-01-13T00:01:28.718Z,9.40
2023-01-13T00:01:39.029Z,9.40
2023-01-13T00:01:49.380Z,9.39
2023-01-13T00:01:59.724Z,9.40
2023-01-13T00:02:10.108Z,9.40
2023-01-13T00:02:20.492Z,9.40
2023-01-13T00:02:30.831Z,9.39
2023-01-13T00:02:41.228Z,9.40
2023-01-13T00:02:51.565Z,9.39
2023-01-13T00:03:01.919Z,9.39
2023-01-13T00:03:12.270Z,9.40
2023-01-13T00:03:22.586Z,9.39
2023-01-13T00:03:32.935Z,9.39
2023-01-13T00:03:43.275Z,9.39
2023-01-13T00:03:53.609Z,9.40
2023-01-13T00:04:03.957Z,9.39
2023-01-13T00:04:14.304Z,9.39
2023-01-13T00:04:24.701Z,9.39
2023-01-13T00:04:35.048Z,9.39
2023-01-13T00:04:45.397Z,9.40
2023-01-13T00:04:55.753Z,9.40
2023-01-13T00:05:06.154Z,9.40
2023-01-13T00:05:16.295Z,9.39
2023-01-13T00:05:26.672Z,9.39
2023-01-13T00:05:36.990Z,9.39
2023-01-13T00:05:47.333Z,9.39
2023-01-13T00:05:57.675Z,9.36
2023-01-13T00:06:08.028Z,9.39
2023-01-13T00:06:18.376Z,9.39
2023-01-13T00:06:28.712Z,9.39
2023-01-13T00:06:39.044Z,9.39
2023-01-13T00:06:49.392Z,9.37
2023-01-13T00:06:59.721Z,9.39
2023-01-13T00:07:10.068Z,9.39
2023-01-13T00:07:20.440Z,9.37
2023-01-13T00:07:30.753Z,9.37
2023-01-13T00:07:41.108Z,9.39
2023-01-13T00:07:51.436Z,9.37
2023-01-13T00:08:01.781Z,9.37
2023-01-13T00:08:12.141Z,9.39
2023-01-13T00:08:22.458Z,9.39
2023-01-13T00:08:32.795Z,9.37
2023-01-13T00:08:43.140Z,9.39
2023-01-13T00:08:53.482Z,9.37
2023-01-13T00:09:03.821Z,9.39
2023-01-13T00:09:14.154Z,9.39
2023-01-13T00:09:24.497Z,9.37
2023-01-13T00:09:34.839Z,9.37
2023-01-13T00:09:45.184Z,9.39
2023-01-13T00:09:55.526Z,9.37
2023-01-13T00:10:05.862Z,9.39
2023-01-13T00:10:16.191Z,9.37
2023-01-13T00:10:26.541Z,9.37
2023-01-13T00:10:36.873Z,9.37
2023-01-13T00:10:47.218Z,9.37
2023-01-13T00:10:57.549Z,9.36
2023-01-13T00:11:07.925Z,9.37
2023-01-13T00:11:18.256Z,9.39
2023-01-13T00:11:28.584Z,9.39
2023-01-13T00:11:38.939Z,9.39
2023-01-13T00:11:49.281Z,9.37
2023-01-13T00:11:59.622Z,9.37
2023-01-13T00:12:09.959Z,9.37
2023-01-13T00:12:20.317Z,9.36
2023-01-13T00:12:30.666Z,9.36
2023-01-13T00:12:41.013Z,9.36
2023-01-13T00:12:51.356Z,9.37
2023-01-13T00:13:01.710Z,9.36
2023-01-13T00:13:12.053Z,9.39
2023-01-13T00:13:22.407Z,9.39
2023-01-13T00:13:32.738Z,9.37
2023-01-13T00:13:43.082Z,9.37
2023-01-13T00:13:53.417Z,9.39
2023-01-13T00:14:03.756Z,9.37
2023-01-13T00:14:14.097Z,9.37
2023-01-13T00:14:24.443Z,9.39
2023-01-13T00:14:34.799Z,9.37
2023-01-13T00:14:45.149Z,9.39
2023-01-13T00:14:55.481Z,9.37
2023-01-13T00:15:05.709Z,9.37
2023-01-13T00:15:16.061Z,9.37
2023-01-13T00:15:26.392Z,9.37
2023-01-13T00:15:36.765Z,9.37
2023-01-13T00:15:47.111Z,9.40
2023-01-13T00:15:57.505Z,9.39
2023-01-13T00:16:07.889Z,9.37
2023-01-13T00:16:18.153Z,9.37
2023-01-13T00:16:28.276Z,9.39
2023-01-13T00:16:38.637Z,9.39
2023-01-13T00:16:48.957Z,9.37
2023-01-13T00:16:59.301Z,9.37
2023-01-13T00:17:09.651Z,9.36
2023-01-13T00:17:19.998Z,9.37
2023-01-13T00:17:30.337Z,9.37
2023-01-13T00:17:40.685Z,9.37
2023-01-13T00:17:51.029Z,9.36
2023-01-13T00:18:01.369Z,9.36
2023-01-13T00:18:11.710Z,9.36
2023-01-13T00:18:22.049Z,9.37
2023-01-13T00:18:32.394Z,9.36
2023-01-13T00:18:42.740Z,9.39
2023-01-13T00:18:53.078Z,9.36
2023-01-13T00:19:03.425Z,9.36
2023-01-13T00:19:13.781Z,9.39
2023-01-13T00:19:24.111Z,9.37
2023-01-13T00:19:34.461Z,9.36
2023-01-13T00:19:44.792Z,9.37
2023-01-13T00:19:55.137Z,9.36
2023-01-13T00:20:05.474Z,9.34
2023-01-13T00:20:15.818Z,9.36
2023-01-13T00:20:26.163Z,9.37
2023-01-13T00:20:36.505Z,9.36
2023-01-13T00:20:46.858Z,9.36
2023-01-13T00:20:57.185Z,9.34
2023-01-13T00:21:07.524Z,9.39
2023-01-13T00:21:17.889Z,9.34
2023-01-13T00:21:28.223Z,9.36
2023-01-13T00:21:38.557Z,9.36
2023-01-13T00:21:48.902Z,9.37
2023-01-13T00:21:59.231Z,9.36
2023-01-13T00:22:09.582Z,9.36
2023-01-13T00:22:19.929Z,9.34
2023-01-13T00:22:30.284Z,9.34
2023-01-13T00:22:40.612Z,9.34
2023-01-13T00:22:50.958Z,9.36
2023-01-13T00:23:01.290Z,9.34
2023-01-13T00:23:11.646Z,9.34
2023-01-13T00:23:21.974Z,9.34
2023-01-13T00:23:32.329Z,9.34
2023-01-13T00:23:42.664Z,9.36
2023-01-13T00:23:53.002Z,9.31
2023-01-13T00:24:03.346Z,9.36
2023-01-13T00:24:13.692Z,9.33
2023-01-13T00:24:24.037Z,9.31
2023-01-13T00:24:34.362Z,9.34
2023-01-13T00:24:44.711Z,9.36
2023-01-13T00:24:55.043Z,9.34
2023-01-13T00:25:05.378Z,9.33
2023-01-13T00:25:15.734Z,9.33
2023-01-13T00:25:26.070Z,9.33
2023-01-13T00:25:36.410Z,9.34
2023-01-13T00:25:46.740Z,9.33
2023-01-13T00:25:57.099Z,9.36
2023-01-13T00:26:07.451Z,9.33
2023-01-13T00:26:17.782Z,9.33
2023-01-13T00:26:28.114Z,9.31
2023-01-13T00:26:38.453Z,9.34
2023-01-13T00:26:48.789Z,9.34
2023-01-13T00:26:59.138Z,9.33
2023-01-13T00:27:09.469Z,9.31
2023-01-13T00:27:19.847Z,9.33
2023-01-13T00:27:30.174Z,9.33
2023-01-13T00:27:40.515Z,9.34
2023-01-13T00:27:50.854Z,9.33
2023-01-13T00:28:01.187Z,9.34
2023-01-13T00:28:11.534Z,9.31
2023-01-13T00:28:21.872Z,9.34
2023-01-13T00:28:32.246Z,9.31
2023-01-13T00:28:42.575Z,9.33
2023-01-13T00:28:52.894Z,9.31
2023-01-13T00:29:03.233Z,9.31
2023-01-13T00:29:13.590Z,9.33
2023-01-13T00:29:23.926Z,9.33
2023-01-13T00:29:34.261Z,9.33
2023-01-13T00:29:44.603Z,9.31
2023-01-13T00:29:54.953Z,9.31
2023-01-13T00:30:05.292Z,9.33
2023-01-13T00:30:15.629Z,9.31
2023-01-13T00:30:25.979Z,9.31
2023-01-13T00:30:36.312Z,9.31
2023-01-13T00:30:46.655Z,9.31
2023-01-13T00:30:57.002Z,9.31
2023-01-13T00:31:07.424Z,9.29
2023-01-13T00:31:17.782Z,9.31
2023-01-13T00:31:28.169Z,9.30
2023-01-13T00:31:38.505Z,9.31
2023-01-13T00:31:48.847Z,9.31
2023-01-13T00:31:59.165Z,9.33
2023-01-13T00:32:09.512Z,9.30
2023-01-13T00:32:19.861Z,9.31
2023-01-13T00:32:30.211Z,9.30
2023-01-13T00:32:40.536Z,9.30
2023-01-13T00:32:50.897Z,9.31
2023-01-13T00:33:01.252Z,9.30
2023-01-13T00:33:11.587Z,9.31
2023-01-13T00:33:21.936Z,9.31
2023-01-13T00:33:32.268Z,9.31
2023-01-13T00:33:42.605Z,9.30
2023-01-13T00:33:52.947Z,9.31
2023-01-13T00:34:03.284Z,9.30
2023-01-13T00:34:13.630Z,9.30
2023-01-13T00:34:23.971Z,9.30
2023-01-13T00:34:34.308Z,9.29
2023-01-13T00:34:44.649Z,9.30
2023-01-13T00:34:54.987Z,9.31
2023-01-13T00:35:05.339Z,9.30
2023-01-13T00:35:15.667Z,9.30
2023-01-13T00:35:26.013Z,9.27
2023-01-13T00:35:36.348Z,9.30
2023-01-13T00:35:46.724Z,9.30
2023-01-13T00:35:57.043Z,9.29
2023-01-13T00:36:07.399Z,9.29
2023-01-13T00:36:17.710Z,9.29
2023-01-13T00:36:28.050Z,9.27
2023-01-13T00:36:38.395Z,9.29
2023-01-13T00:36:48.725Z,9.29
2023-01-13T00:36:59.072Z,9.30
2023-01-13T00:37:09.416Z,9.30
2023-01-13T00:37:19.790Z,9.29
2023-01-13T00:37:30.113Z,9.27
2023-01-13T00:37:40.457Z,9.27
2023-01-13T00:37:50.786Z,9.29
2023-01-13T00:38:01.134Z,9.29
2023-01-13T00:38:11.466Z,9.30
2023-01-13T00:38:21.809Z,9.27
2023-01-13T00:38:32.167Z,9.27
2023-01-13T00:38:42.492Z,9.27
2023-01-13T00:38:52.828Z,9.30
2023-01-13T00:39:03.175Z,9.29
2023-01-13T00:39:13.504Z,9.27
2023-01-13T00:39:23.849Z,9.27
2023-01-13T00:39:34.199Z,9.27
2023-01-13T00:39:44.543Z,9.26
2023-01-13T00:39:54.873Z,9.26
2023-01-13T00:40:05.211Z,9.27
2023-01-13T00:40:15.555Z,9.26
2023-01-13T00:40:25.897Z,9.27
2023-01-13T00:40:36.251Z,9.27
2023-01-13T00:40:46.581Z,9.29
2023-01-13T00:40:56.912Z,9.27
2023-01-13T00:41:07.271Z,9.26
2023-01-13T00:41:17.594Z,9.26
2023-01-13T00:41:27.947Z,9.27
2023-01-13T00:41:38.281Z,9.26
2023-01-13T00:41:48.625Z,9.27
2023-01-13T00:41:58.968Z,9.26
2023-01-13T00:42:09.334Z,9.26
2023-01-13T00:42:19.653Z,9.26
2023-01-13T00:42:30.011Z,9.26
2023-01-13T00:42:40.346Z,9.27
2023-01-13T00:42:50.683Z,9.26
2023-01-13T00:43:01.026Z,9.26
2023-01-13T00:43:11.370Z,9.26
2023-01-13T00:43:21.700Z,9.27
2023-01-13T00:43:32.052Z,9.27
2023-01-13T00:43:42.402Z,9.26
2023-01-13T00:43:52.732Z,9.27
2023-01-13T00:44:03.076Z,9.26
2023-01-13T00:44:13.411Z,9.24
2023-01-13T00:44:23.756Z,9.26
2023-01-13T00:44:34.096Z,9.26
2023-01-13T00:44:44.429Z,9.26
2023-01-13T00:44:54.774Z,9.26
2023-01-13T00:45:05.117Z,9.26
2023-01-13T00:45:15.453Z,9.26
2023-01-13T00:45:25.807Z,9.26
2023-01-13T00:45:36.146Z,9.26
2023-01-13T00:45:46.491Z,9.24
2023-01-13T00:45:56.834Z,9.24
2023-01-13T00:46:07.263Z,9.24
2023-01-13T00:46:17.495Z,9.26
2023-01-13T00:46:27.649Z,9.22
2023-01-13T00:46:38.071Z,9.24
2023-01-13T00:46:48.258Z,9.24
2023-01-13T00:46:58.656Z,9.24
2023-01-13T00:47:08.951Z,9.26
2023-01-13T00:47:19.302Z,9.22
2023-01-13T00:47:29.639Z,9.22
2023-01-13T00:47:39.985Z,9.26
2023-01-13T00:47:50.331Z,9.24
2023-01-13T00:48:00.660Z,9.22
2023-01-13T00:48:11.006Z,9.24
2023-01-13T00:48:21.346Z,9.24
2023-01-13T00:48:31.698Z,9.24
2023-01-13T00:48:42.023Z,9.24
2023-01-13T00:48:52.379Z,9.24
2023-01-13T00:49:02.703Z,9.26
2023-01-13T00:49:13.048Z,9.24
2023-01-13T00:49:23.383Z,9.24
2023-01-13T00:49:33.737Z,9.24
2023-01-13T00:49:44.064Z,9.22
2023-01-13T00:49:54.405Z,9.24
2023-01-13T00:50:04.745Z,9.22
2023-01-13T00:50:15.079Z,9.22
2023-01-13T00:50:25.428Z,9.24
2023-01-13T00:50:35.775Z,9.24
2023-01-13T00:50:46.114Z,9.22
2023-01-13T00:50:56.451Z,9.22
2023-01-13T00:51:06.802Z,9.24
2023-01-13T00:51:17.134Z,9.22
2023-01-13T00:51:27.491Z,9.22
2023-01-13T00:51:37.814Z,9.26
2023-01-13T00:51:48.169Z,9.24
2023-01-13T00:51:58.516Z,9.26
2023-01-13T00:52:08.853Z,9.24
2023-01-13T00:52:19.206Z,9.24
2023-01-13T00:52:29.544Z,9.22
2023-01-13T00:52:42.000Z,9.22
2023-01-13T00:52:50.214Z,9.26
2023-01-13T00:53:00.551Z,9.24
2023-01-13T00:53:10.885Z,9.24
2023-01-13T00:53:21.233Z,9.27
2023-01-13T00:53:31.581Z,9.24
2023-01-13T00:53:41.910Z,9.24
2023-01-13T00:53:52.259Z,9.24
2023-01-13T00:54:02.599Z,9.22
2023-01-13T00:54:12.951Z,9.24
2023-01-13T00:54:23.292Z,9.27
2023-01-13T00:54:33.620Z,9.26
2023-01-13T00:54:43.969Z,9.24
2023-01-13T00:54:54.301Z,9.24
2023-01-13T00:55:04.639Z,9.24
2023-01-13T00:55:14.985Z,9.26
2023-01-13T00:55:25.319Z,9.26
2023-01-13T00:55:35.664Z,9.24
2023-01-13T00:55:45.998Z,9.24
2023-01-13T00:55:56.336Z,9.24
2023-01-13T00:56:06.681Z,9.26
2023-01-13T00:56:21.892Z,9.24
2023-01-13T00:56:39.786Z,9.24
2023-01-13T00:56:40.819Z,9.24
2023-01-13T00:56:47.973Z,9.22
2023-01-13T00:56:58.320Z,9.22
2023-01-13T00:57:08.655Z,9.24
2023-01-13T00:57:19.029Z,9.22
2023-01-13T00:57:29.349Z,9.22
2023-01-13T00:57:39.693Z,9.22
2023-01-13T00:57:50.034Z,9.24
2023-01-13T00:58:00.370Z,9.22
2023-01-13T00:58:10.714Z,9.24
2023-01-13T00:58:21.058Z,9.24
2023-01-13T00:58:31.396Z,9.24
2023-01-13T00:58:41.753Z,9.26
2023-01-13T00:58:52.169Z,9.24
2023-01-13T00:59:02.478Z,9.24
2023-01-13T00:59:12.832Z,9.26
2023-01-13T00:59:23.167Z,9.24
2023-01-13T00:59:33.508Z,9.24
2023-01-13T00:59:43.860Z,9.22
2023-01-13T00:59:54.198Z,9.24
2023-01-13T01:00:04.529Z,9.24
2023-01-13T01:00:14.886Z,9.24
2023-01-13T01:00:25.234Z,9.26
2023-01-13T01:00:35.649Z,9.24
2023-01-13T01:00:46.013Z,9.27
2023-01-13T01:00:56.465Z,9.24
2023-01-13T01:01:06.723Z,9.24
2023-01-13T01:01:17.178Z,9.24
2023-01-13T01:01:27.403Z,9.26
2023-01-13T01:01:37.974Z,9.24
2023-01-13T01:01:48.280Z,9.24
2023-01-13T01:01:58.540Z,9.26
2023-01-13T01:02:08.857Z,9.24
2023-01-13T01:02:19.070Z,9.26
2023-01-13T01:02:29.484Z,9.26
2023-01-13T01:02:39.833Z,9.26
2023-01-13T01:02:50.166Z,9.24
2023-01-13T01:03:00.504Z,9.24
2023-01-13T01:03:10.844Z,9.26
2023-01-13T01:03:21.219Z,9.26
2023-01-13T01:03:31.543Z,9.24
2023-01-13T01:03:41.899Z,9.24
2023-01-13T01:03:52.254Z,9.26
2023-01-13T01:04:02.588Z,9.26
2023-01-13T01:04:12.933Z,9.26
2023-01-13T01:04:23.259Z,9.26
2023-01-13T01:04:33.609Z,9.24
2023-01-13T01:04:43.945Z,9.26
2023-01-13T01:04:54.283Z,9.24
2023-01-13T01:05:04.614Z,9.26
2023-01-13T01:05:14.962Z,9.24
2023-01-13T01:05:25.293Z,9.24
2023-01-13T01:05:35.648Z,9.24
2023-01-13T01:05:45.990Z,9.26
2023-01-13T01:05:56.322Z,9.26
2023-01-13T01:06:06.678Z,9.24
2023-01-13T01:06:17.037Z,9.27
2023-01-13T01:06:27.367Z,9.26
2023-01-13T01:06:37.717Z,9.26
2023-01-13T01:06:48.053Z,9.24
2023-01-13T01:06:58.394Z,9.26
2023-01-13T01:07:08.734Z,9.27
2023-01-13T01:07:19.093Z,9.24
2023-01-13T01:07:29.421Z,9.26
2023-01-13T01:07:39.759Z,9.26
2023-01-13T01:07:50.124Z,9.26
2023-01-13T01:08:00.452Z,9.26
2023-01-13T01:08:10.815Z,9.26
2023-01-13T01:08:21.152Z,9.26
2023-01-13T01:08:31.492Z,9.24
2023-01-13T01:08:41.831Z,9.26
2023-01-13T01:08:52.170Z,9.26
2023-01-13T01:09:02.521Z,9.26
2023-01-13T01:09:12.858Z,9.26
2023-01-13T01:09:23.198Z,9.26
2023-01-13T01:09:33.575Z,9.24
2023-01-13T01:09:43.878Z,9.24
2023-01-13T01:09:54.219Z,9.24
2023-01-13T01:10:04.594Z,9.27
2023-01-13T01:10:14.895Z,9.26
2023-01-13T01:10:25.261Z,9.26
2023-01-13T01:10:35.600Z,9.26
2023-01-13T01:10:45.932Z,9.24
2023-01-13T01:10:56.269Z,9.26
2023-01-13T01:11:06.604Z,9.26
2023-01-13T01:11:16.966Z,9.24
2023-01-13T01:11:27.325Z,9.26
2023-01-13T01:11:37.669Z,9.26
2023-01-13T01:11:48.031Z,9.26
2023-01-13T01:11:58.368Z,9.26
2023-01-13T01:12:08.714Z,9.26
2023-01-13T01:12:19.062Z,9.26
2023-01-13T01:12:29.412Z,9.26
2023-01-13T01:12:39.767Z,9.26
2023-01-13T01:12:50.092Z,9.26
2023-01-13T01:13:00.448Z,9.26
2023-01-13T01:13:10.770Z,9.26
2023-01-13T01:13:21.108Z,9.26
2023-01-13T01:13:31.454Z,9.24
2023-01-13T01:13:41.810Z,9.26
2023-01-13T01:13:52.165Z,9.26
2023-01-13T01:14:02.499Z,9.26
2023-01-13T01:14:12.816Z,9.26
2023-01-13T01:14:23.173Z,9.27
2023-01-13T01:14:33.493Z,9.26
2023-01-13T01:14:43.835Z,9.24
2023-01-13T01:14:54.191Z,9.26
2023-01-13T01:15:04.529Z,9.27
2023-01-13T01:15:14.896Z,9.26
2023-01-13T01:15:25.216Z,9.26
2023-01-13T01:15:35.572Z,9.26
2023-01-13T01:15:45.926Z,9.26
2023-01-13T01:15:56.286Z,9.27
2023-01-13T01:16:06.654Z,9.24
2023-01-13T01:16:17.056Z,9.26
2023-01-13T01:16:27.439Z,9.27
2023-01-13T01:16:37.769Z,9.26
2023-01-13T01:16:48.127Z,9.26
2023-01-13T01:16:58.471Z,9.26
2023-01-13T01:17:08.798Z,9.24
2023-01-13T01:17:19.214Z,9.27
2023-01-13T01:17:29.524Z,9.26
2023-01-13T01:17:39.854Z,9.27
2023-01-13T01:17:50.222Z,9.26
2023-01-13T01:18:00.589Z,9.26
2023-01-13T01:18:10.921Z,9.26
2023-01-13T01:18:21.262Z,9.27
2023-01-13T01:18:31.611Z,9.26
2023-01-13T01:18:41.946Z,9.26
2023-01-13T01:18:52.308Z,9.24
2023-01-13T01:19:02.620Z,9.24
2023-01-13T01:19:12.986Z,9.26
2023-01-13T01:19:23.251Z,9.27
2023-01-13T01:19:33.596Z,9.26
2023-01-13T01:19:43.942Z,9.24
2023-01-13T01:19:54.276Z,9.26
2023-01-13T01:20:04.630Z,9.24
2023-01-13T01:20:14.965Z,9.26
2023-01-13T01:20:25.322Z,9.24
2023-01-13T01:20:35.651Z,9.26
2023-01-13T01:20:46.024Z,9.24
2023-01-13T01:20:56.345Z,9.26
2023-01-13T01:21:06.680Z,9.26
2023-01-13T01:21:17.015Z,9.27
2023-01-13T01:21:27.359Z,9.27
2023-01-13T01:21:37.695Z,9.24
2023-01-13T01:21:48.052Z,9.27
2023-01-13T01:21:58.390Z,9.26
2023-01-13T01:22:08.728Z,9.27
2023-01-13T01:22:19.091Z,9.24
2023-01-13T01:22:29.441Z,9.26
2023-01-13T01:22:39.768Z,9.26
2023-01-13T01:22:50.114Z,9.26
2023-01-13T01:23:00.455Z,9.27
2023-01-13T01:23:10.792Z,9.26
2023-01-13T01:23:21.164Z,9.26
2023-01-13T01:23:31.546Z,9.26
2023-01-13T01:23:41.867Z,9.26
2023-01-13T01:23:52.198Z,9.24
2023-01-13T01:24:02.531Z,9.26
2023-01-13T01:24:12.862Z,9.26
2023-01-13T01:24:23.207Z,9.24
2023-01-13T01:24:33.568Z,9.27
2023-01-13T01:24:43.889Z,9.27
2023-01-13T01:24:54.266Z,9.26
2023-01-13T01:25:04.598Z,9.27
2023-01-13T01:25:14.939Z,9.26
2023-01-13T01:25:25.280Z,9.24
2023-01-13T01:25:35.615Z,9.24
2023-01-13T01:25:45.970Z,9.24
2023-01-13T01:25:56.297Z,9.27
2023-01-13T01:26:06.635Z,9.26
2023-01-13T01:26:16.980Z,9.27
2023-01-13T01:26:27.329Z,9.26
2023-01-13T01:26:37.677Z,9.26
2023-01-13T01:26:48.017Z,9.27
2023-01-13T01:26:58.359Z,9.26
2023-01-13T01:27:08.704Z,9.26
2023-01-13T01:27:19.053Z,9.27
2023-01-13T01:27:29.400Z,9.26
2023-01-13T01:27:39.736Z,9.26
2023-01-13T01:27:50.090Z,9.24
2023-01-13T01:28:00.434Z,9.27
2023-01-13T01:28:10.757Z,9.26
2023-01-13T01:28:21.105Z,9.24
2023-01-13T01:28:31.441Z,9.26
2023-01-13T01:28:41.785Z,9.26
2023-01-13T01:28:52.138Z,9.26
2023-01-13T01:29:02.560Z,9.24
2023-01-13T01:29:12.886Z,9.24
2023-01-13T01:29:23.215Z,9.22
2023-01-13T01:29:33.561Z,9.24
2023-01-13T01:29:43.896Z,9.26
2023-01-13T01:29:54.239Z,9.26
2023-01-13T01:30:04.585Z,9.26
2023-01-13T01:30:14.921Z,9.24
2023-01-13T01:30:25.278Z,9.26
2023-01-13T01:30:35.603Z,9.26
2023-01-13T01:30:45.859Z,9.26
2023-01-13T01:30:56.198Z,9.24
2023-01-13T01:31:06.596Z,9.24
2023-01-13T01:31:16.998Z,9.22
2023-01-13T01:31:27.327Z,9.22
2023-01-13T01:31:37.690Z,9.24
2023-01-13T01:31:48.070Z,9.22
2023-01-13T01:31:58.376Z,9.24
2023-01-13T01:32:08.714Z,9.24
2023-01-13T01:32:19.081Z,9.24
2023-01-13T01:32:29.425Z,9.24
2023-01-13T01:32:39.755Z,9.26
2023-01-13T01:32:50.094Z,9.24
2023-01-13T01:33:00.444Z,9.22
2023-01-13T01:33:10.772Z,9.21
2023-01-13T01:33:21.115Z,9.22
2023-01-13T01:33:31.455Z,9.22
2023-01-13T01:33:41.797Z,9.22
2023-01-13T01:33:52.137Z,9.24
2023-01-13T01:34:02.472Z,9.22
2023-01-13T01:34:12.842Z,9.22
2023-01-13T01:34:23.179Z,9.22
2023-01-13T01:34:33.506Z,9.21
2023-01-13T01:34:43.862Z,9.22
2023-01-13T01:34:54.212Z,9.22
2023-01-13T01:35:04.558Z,9.22
2023-01-13T01:35:14.893Z,9.22
2023-01-13T01:35:25.239Z,9.21
2023-01-13T01:35:35.597Z,9.22
2023-01-13T01:35:45.937Z,9.21
2023-01-13T01:35:56.271Z,9.22
2023-01-13T01:36:06.609Z,9.21
2023-01-13T01:36:16.952Z,9.21
2023-01-13T01:36:27.290Z,9.22
2023-01-13T01:36:37.630Z,9.19
2023-01-13T01:36:47.969Z,9.22
2023-01-13T01:36:58.316Z,9.21
2023-01-13T01:37:08.677Z,9.21
2023-01-13T01:37:19.014Z,9.21
2023-01-13T01:37:29.366Z,9.21
2023-01-13T01:37:39.697Z,9.21
2023-01-13T01:37:50.040Z,9.21
2023-01-13T01:38:00.396Z,9.21
2023-01-13T01:38:10.731Z,9.21
2023-01-13T01:38:21.064Z,9.21
2023-01-13T01:38:31.411Z,9.19
2023-01-13T01:38:41.745Z,9.18
2023-01-13T01:38:52.086Z,9.21
2023-01-13T01:39:02.439Z,9.19
2023-01-13T01:39:12.786Z,9.19
2023-01-13T01:39:23.143Z,9.21
2023-01-13T01:39:33.475Z,9.21
2023-01-13T01:39:43.807Z,9.19
2023-01-13T01:39:54.146Z,9.19
2023-01-13T01:40:04.492Z,9.21
2023-01-13T01:40:14.847Z,9.21
2023-01-13T01:40:25.171Z,9.19
2023-01-13T01:40:35.502Z,9.19
2023-01-13T01:40:45.848Z,9.19
2023-01-13T01:40:56.194Z,9.19
2023-01-13T01:41:06.537Z,9.19
2023-01-13T01:41:16.887Z,9.19
2023-01-13T01:41:27.262Z,9.19
2023-01-13T01:41:37.483Z,9.21
2023-01-13T01:41:47.820Z,9.19
2023-01-13T01:41:58.158Z,9.19
2023-01-13T01:42:08.497Z,9.21
2023-01-13T01:42:18.858Z,9.18
2023-01-13T01:42:29.197Z,9.18
2023-01-13T01:42:39.543Z,9.18
2023-01-13T01:42:49.879Z,9.19
2023-01-13T01:43:00.234Z,9.19
2023-01-13T01:43:10.557Z,9.18
2023-01-13T01:43:20.895Z,9.19
2023-01-13T01:43:31.243Z,9.19
2023-01-13T01:43:41.582Z,9.19
2023-01-13T01:43:51.941Z,9.18
2023-01-13T01:44:02.339Z,9.18
2023-01-13T01:44:12.666Z,9.18
2023-01-13T01:44:23.017Z,9.16
2023-01-13T01:44:33.351Z,9.18
2023-01-13T01:44:43.707Z,9.18
2023-01-13T01:44:54.053Z,9.16
2023-01-13T01:45:04.382Z,9.18
2023-01-13T01:45:14.721Z,9.15
2023-01-13T01:45:25.055Z,9.16
2023-01-13T01:45:35.406Z,9.16
2023-01-13T01:45:45.753Z,9.16
2023-01-13T01:45:56.095Z,9.16
2023-01-13T01:46:06.491Z,9.16
2023-01-13T01:46:16.824Z,9.15
2023-01-13T01:46:27.198Z,9.13
2023-01-13T01:46:37.688Z,9.15
2023-01-13T01:46:47.867Z,9.16
2023-01-13T01:46:58.298Z,9.15
2023-01-13T01:47:08.392Z,9.15
2023-01-13T01:47:18.762Z,9.15
2023-01-13T01:47:29.106Z,9.15
2023-01-13T01:47:39.495Z,9.15
2023-01-13T01:47:49.829Z,9.15
2023-01-13T01:48:00.173Z,9.13
2023-01-13T01:48:10.500Z,9.15
2023-01-13T01:48:20.842Z,9.12
2023-01-13T01:48:31.187Z,9.12
2023-01-13T01:48:41.539Z,9.12
2023-01-13T01:48:51.868Z,9.13
2023-01-13T01:49:02.217Z,9.13
2023-01-13T01:49:12.578Z,9.13
2023-01-13T01:49:22.922Z,9.13
2023-01-13T01:49:33.279Z,9.12
2023-01-13T01:49:43.656Z,9.12
2023-01-13T01:49:53.956Z,9.09
2023-01-13T01:50:04.304Z,9.12
2023-01-13T01:50:14.671Z,9.12
2023-01-13T01:50:25.019Z,9.12
2023-01-13T01:50:35.372Z,9.11
2023-01-13T01:50:45.708Z,9.12
2023-01-13T01:50:56.029Z,9.11
2023-01-13T01:51:06.376Z,9.11
2023-01-13T01:51:16.734Z,9.11
2023-01-13T01:51:26.960Z,9.11
2023-01-13T01:51:37.309Z,9.12
2023-01-13T01:51:47.648Z,9.11
2023-01-13T01:51:57.984Z,9.12
2023-01-13T01:52:08.323Z,9.09
2023-01-13T01:52:18.699Z,9.11
2023-01-13T01:52:29.029Z,9.12
2023-01-13T01:52:39.381Z,9.09
2023-01-13T01:52:49.729Z,9.11
2023-01-13T01:53:00.087Z,9.09
2023-01-13T01:53:10.411Z,9.09
2023-01-13T01:53:20.764Z,9.11
2023-01-13T01:53:31.098Z,9.11
2023-01-13T01:53:41.435Z,9.11
2023-01-13T01:53:51.796Z,9.08
2023-01-13T01:54:02.126Z,9.11
2023-01-13T01:54:12.471Z,9.09
2023-01-13T01:54:22.800Z,9.09
2023-01-13T01:54:33.151Z,9.09
2023-01-13T01:54:43.487Z,9.09
2023-01-13T01:54:53.852Z,9.09
2023-01-13T01:55:04.180Z,9.08
2023-01-13T01:55:14.521Z,9.09
2023-01-13T01:55:24.860Z,9.08
2023-01-13T01:55:35.235Z,9.08
2023-01-13T01:55:45.556Z,9.09
2023-01-13T01:55:55.925Z,9.08
2023-01-13T01:56:06.267Z,9.08
2023-01-13T01:56:16.613Z,9.08
2023-01-13T01:56:26.987Z,9.08
2023-01-13T01:56:37.332Z,9.05
2023-01-13T01:56:47.683Z,9.08
2023-01-13T01:56:58.033Z,9.08
2023-01-13T01:57:08.375Z,9.08
2023-01-13T01:57:18.737Z,9.05
2023-01-13T01:57:29.122Z,9.05
2023-01-13T01:57:39.485Z,9.08
2023-01-13T01:57:49.811Z,9.05
2023-01-13T01:58:00.160Z,9.08
2023-01-13T01:58:10.506Z,9.02
2023-01-13T01:58:20.839Z,9.03
2023-01-13T01:58:31.205Z,9.03
2023-01-13T01:58:41.517Z,9.05
2023-01-13T01:58:51.865Z,9.03
2023-01-13T01:59:02.197Z,9.03
2023-01-13T01:59:12.540Z,9.03
2023-01-13T01:59:22.894Z,9.05
2023-01-13T01:59:33.219Z,9.02
2023-01-13T01:59:43.566Z,9.03
2023-01-13T01:59:53.928Z,9.05
2023-01-13T02:00:04.250Z,9.03
2023-01-13T02:00:14.607Z,9.03
2023-01-13T02:00:24.951Z,9.03
2023-01-13T02:00:35.326Z,9.02
2023-01-13T02:00:45.681Z,9.02
2023-01-13T02:00:56.141Z,9.03
2023-01-13T02:01:06.396Z,9.03
2023-01-13T02:01:16.648Z,9.03
2023-01-13T02:01:26.962Z,9.03
2023-01-13T02:01:37.221Z,9.03
2023-01-13T02:01:47.651Z,9.02
2023-01-13T02:01:57.936Z,9.03
2023-01-13T02:02:08.249Z,9.03
2023-01-13T02:02:18.470Z,9.02
2023-01-13T02:02:28.969Z,9.02
2023-01-13T02:02:39.187Z,9.02
2023-01-13T02:02:49.382Z,9.02
2023-01-13T02:02:59.685Z,9.02
2023-01-13T02:03:10.034Z,9.00
2023-01-13T02:03:20.405Z,9.02
2023-01-13T02:03:30.719Z,9.02
2023-01-13T02:03:41.056Z,9.02
2023-01-13T02:03:51.398Z,9.02
2023-01-13T02:04:01.742Z,9.00
2023-01-13T02:04:12.077Z,9.02
2023-01-13T02:04:22.438Z,8.99
2023-01-13T02:04:32.790Z,9.00
2023-01-13T02:04:43.125Z,9.00
2023-01-13T02:04:53.468Z,9.02
2023-01-13T02:05:03.801Z,8.99
2023-01-13T02:05:14.146Z,8.99
2023-01-13T02:05:24.488Z,9.00
2023-01-13T02:05:34.830Z,8.99
2023-01-13T02:05:45.178Z,8.99
2023-01-13T02:05:55.530Z,9.00
2023-01-13T02:06:05.844Z,9.00
2023-01-13T02:06:16.182Z,9.00
2023-01-13T02:06:26.533Z,9.00
2023-01-13T02:06:36.878Z,9.00
2023-01-13T02:06:47.217Z,8.99
2023-01-13T02:06:57.567Z,8.99
2023-01-13T02:07:07.940Z,8.99
2023-01-13T02:07:18.279Z,8.97
2023-01-13T02:07:28.620Z,8.97
2023-01-13T02:07:38.956Z,8.99
2023-01-13T02:07:49.296Z,8.99
2023-01-13T02:07:59.638Z,8.97
2023-01-13T02:08:09.980Z,8.96
2023-01-13T02:08:20.338Z,8.97
2023-01-13T02:08:30.659Z,8.97
2023-01-13T02:08:41.006Z,8.97
2023-01-13T02:08:51.341Z,8.97
2023-01-13T02:09:01.693Z,8.97
2023-01-13T02:09:12.038Z,8.97
2023-01-13T02:09:22.392Z,8.97
2023-01-13T02:09:32.736Z,8.96
2023-01-13T02:09:43.074Z,8.97
2023-01-13T02:09:53.432Z,8.97
2023-01-13T02:10:03.759Z,8.99
2023-01-13T02:10:14.094Z,8.97
2023-01-13T02:10:24.448Z,8.97
2023-01-13T02:10:34.771Z,8.97
2023-01-13T02:10:45.128Z,8.95
2023-01-13T02:10:55.463Z,8.97
2023-01-13T02:11:05.800Z,8.99
2023-01-13T02:11:16.140Z,8.97
2023-01-13T02:11:26.497Z,8.96
2023-01-13T02:11:36.827Z,8.96
2023-01-13T02:11:47.169Z,8.96
2023-01-13T02:11:57.515Z,8.96
2023-01-13T02:12:07.857Z,8.96
2023-01-13T02:12:18.217Z,8.97
2023-01-13T02:12:28.553Z,8.97
2023-01-13T02:12:38.915Z,8.96
2023-01-13T02:12:49.258Z,8.96
2023-01-13T02:12:59.592Z,8.95
2023-01-13T02:13:09.937Z,8.96
2023-01-13T02:13:20.291Z,8.97
2023-01-13T02:13:30.615Z,8.96
2023-01-13T02:13:40.955Z,8.96
2023-01-13T02:13:51.307Z,8.96
2023-01-13T02:14:01.640Z,8.95
2023-01-13T02:14:11.978Z,8.95
2023-01-13T02:14:22.323Z,8.96
2023-01-13T02:14:32.674Z,8.96
2023-01-13T02:14:43.024Z,8.95
2023-01-13T02:14:53.356Z,8.96
2023-01-13T02:15:03.709Z,8.95
2023-01-13T02:15:14.066Z,8.95
2023-01-13T02:15:24.381Z,8.96
2023-01-13T02:15:34.722Z,8.95
2023-01-13T02:15:45.065Z,8.96
2023-01-13T02:15:55.421Z,8.93
2023-01-13T02:16:05.874Z,8.95
2023-01-13T02:16:16.006Z,8.95
2023-01-13T02:16:26.409Z,8.93
2023-01-13T02:16:36.763Z,8.95
2023-01-13T02:16:47.102Z,8.95
2023-01-13T02:16:57.441Z,8.95
2023-01-13T02:17:07.789Z,8.95
2023-01-13T02:17:18.146Z,8.93
2023-01-13T02:17:28.488Z,8.95
2023-01-13T02:17:38.821Z,8.93